sensor_id;sensor_type;location;lat;lon;timestamp;P1;durP1;ratioP1;P2;durP2;ratioP2
14013;SDS011;49110;52.584;13.408;2024-02-23T00:00:27;47.23;;;45.00;;
14013;SDS011;49110;52.584;13.408;2024-02-23T00:01:28;45.80;;;43.63;;
14013;SDS011;49110;52.584;13.408;2024-02-23T00:02:29;46.37;;;44.17;;
14013;SDS011;49110;52.584;13.408;2024-02-23T00:03:29;45.60;;;43.43;;
14013;SDS011;49110;52.584;13.408;2024-02-23T00:04:30;47.90;;;45.63;;
14013;SDS011;49110;52.584;13.408;2024-02-23T00:05:31;47.03;;;44.73;;
14013;SDS011;49110;52.584;13.408;2024-02-23T00:06:31;43.40;;;41.37;;
14013;SDS011;49110;52.584;13.408;2024-02-23T00:07:32;43.03;;;40.97;;
14013;SDS011;49110;52.584;13.408;2024-02-23T00:08:32;44.23;;;42.03;;
14013;SDS011;49110;52.584;13.408;2024-02-23T00:09:33;44.27;;;42.20;;
14013;SDS011;49110;52.584;13.408;2024-02-23T00:10:34;46.07;;;43.90;;
14013;SDS011;49110;52.584;13.408;2024-02-23T00:11:34;44.93;;;42.80;;
14013;SDS011;49110;52.584;13.408;2024-02-23T00:12:39;42.10;;;40.13;;
14013;SDS011;49110;52.584;13.408;2024-02-23T00:13:40;45.87;;;43.67;;
14013;SDS011;49110;52.584;13.408;2024-02-23T00:14:40;44.40;;;42.17;;
14013;SDS011;49110;52.584;13.408;2024-02-23T00:15:41;43.87;;;41.80;;
14013;SDS011;49110;52.584;13.408;2024-02-23T00:16:41;45.57;;;43.23;;
14013;SDS011;49110;52.584;13.408;2024-02-23T00:17:42;43.83;;;41.77;;
14013;SDS011;49110;52.584;13.408;2024-02-23T00:18:42;45.50;;;43.37;;
14013;SDS011;49110;52.584;13.408;2024-02-23T00:19:45;47.57;;;45.30;;
14013;SDS011;49110;52.584;13.408;2024-02-23T00:20:46;42.20;;;40.23;;
14013;SDS011;49110;52.584;13.408;2024-02-23T00:21:47;41.10;;;39.10;;
14013;SDS011;49110;52.584;13.408;2024-02-23T00:22:49;43.63;;;41.53;;
14013;SDS011;49110;52.584;13.408;2024-02-23T00:23:50;41.70;;;39.77;;
14013;SDS011;49110;52.584;13.408;2024-02-23T00:24:50;43.57;;;41.47;;
14013;SDS011;49110;52.584;13.408;2024-02-23T00:25:51;42.47;;;40.50;;
14013;SDS011;49110;52.584;13.408;2024-02-23T00:26:51;40.67;;;38.77;;
14013;SDS011;49110;52.584;13.408;2024-02-23T00:27:52;41.23;;;39.33;;
14013;SDS011;49110;52.584;13.408;2024-02-23T00:28:52;41.17;;;39.27;;
14013;SDS011;49110;52.584;13.408;2024-02-23T00:29:53;37.40;;;35.67;;
14013;SDS011;49110;52.584;13.408;2024-02-23T00:30:54;39.37;;;37.33;;
14013;SDS011;49110;52.584;13.408;2024-02-23T00:31:54;39.27;;;37.43;;
14013;SDS011;49110;52.584;13.408;2024-02-23T00:32:55;39.23;;;37.33;;
14013;SDS011;49110;52.584;13.408;2024-02-23T00:33:55;38.57;;;36.77;;
14013;SDS011;49110;52.584;13.408;2024-02-23T00:34:56;39.50;;;37.60;;
14013;SDS011;49110;52.584;13.408;2024-02-23T00:35:57;37.77;;;35.97;;
14013;SDS011;49110;52.584;13.408;2024-02-23T00:36:58;38.70;;;36.90;;
14013;SDS011;49110;52.584;13.408;2024-02-23T00:37:58;39.27;;;37.27;;
14013;SDS011;49110;52.584;13.408;2024-02-23T00:38:59;38.10;;;36.30;;
14013;SDS011;49110;52.584;13.408;2024-02-23T00:40:00;38.47;;;36.53;;
14013;SDS011;49110;52.584;13.408;2024-02-23T00:41:03;37.87;;;36.07;;
14013;SDS011;49110;52.584;13.408;2024-02-23T00:42:04;37.50;;;35.77;;
14013;SDS011;49110;52.584;13.408;2024-02-23T00:43:05;39.97;;;38.07;;
14013;SDS011;49110;52.584;13.408;2024-02-23T00:44:06;38.53;;;36.73;;
14013;SDS011;49110;52.584;13.408;2024-02-23T00:45:06;38.33;;;36.53;;
14013;SDS011;49110;52.584;13.408;2024-02-23T00:46:08;37.67;;;35.87;;
14013;SDS011;49110;52.584;13.408;2024-02-23T00:47:08;37.33;;;35.57;;
14013;SDS011;49110;52.584;13.408;2024-02-23T00:48:09;37.87;;;36.07;;
14013;SDS011;49110;52.584;13.408;2024-02-23T00:49:10;38.83;;;36.93;;
14013;SDS011;49110;52.584;13.408;2024-02-23T00:50:10;38.77;;;36.87;;
14013;SDS011;49110;52.584;13.408;2024-02-23T00:51:11;35.23;;;33.60;;
14013;SDS011;49110;52.584;13.408;2024-02-23T00:52:12;37.33;;;35.53;;
14013;SDS011;49110;52.584;13.408;2024-02-23T00:53:12;35.50;;;33.87;;
14013;SDS011;49110;52.584;13.408;2024-02-23T00:54:13;37.03;;;35.33;;
14013;SDS011;49110;52.584;13.408;2024-02-23T00:55:13;38.80;;;36.97;;
14013;SDS011;49110;52.584;13.408;2024-02-23T00:56:14;36.77;;;34.97;;
14013;SDS011;49110;52.584;13.408;2024-02-23T00:57:14;39.03;;;37.17;;
14013;SDS011;49110;52.584;13.408;2024-02-23T00:58:15;35.17;;;33.57;;
14013;SDS011;49110;52.584;13.408;2024-02-23T00:59:16;34.23;;;32.63;;
14013;SDS011;49110;52.584;13.408;2024-02-23T01:00:17;35.33;;;33.53;;
14013;SDS011;49110;52.584;13.408;2024-02-23T01:01:17;35.97;;;34.27;;
14013;SDS011;49110;52.584;13.408;2024-02-23T01:02:18;37.30;;;35.50;;
14013;SDS011;49110;52.584;13.408;2024-02-23T01:03:18;35.60;;;33.97;;
14013;SDS011;49110;52.584;13.408;2024-02-23T01:04:19;37.10;;;35.30;;
14013;SDS011;49110;52.584;13.408;2024-02-23T01:05:19;35.03;;;33.33;;
14013;SDS011;49110;52.584;13.408;2024-02-23T01:06:20;34.93;;;33.33;;
14013;SDS011;49110;52.584;13.408;2024-02-23T01:07:20;35.97;;;34.27;;
14013;SDS011;49110;52.584;13.408;2024-02-23T01:08:21;33.50;;;31.80;;
14013;SDS011;49110;52.584;13.408;2024-02-23T01:09:21;32.77;;;31.23;;
14013;SDS011;49110;52.584;13.408;2024-02-23T01:10:22;32.73;;;31.23;;
14013;SDS011;49110;52.584;13.408;2024-02-23T01:11:22;30.53;;;29.13;;
14013;SDS011;49110;52.584;13.408;2024-02-23T01:12:23;31.93;;;30.40;;
14013;SDS011;49110;52.584;13.408;2024-02-23T01:13:23;32.30;;;30.70;;
14013;SDS011;49110;52.584;13.408;2024-02-23T01:14:24;31.90;;;30.40;;
14013;SDS011;49110;52.584;13.408;2024-02-23T01:15:24;29.77;;;28.33;;
14013;SDS011;49110;52.584;13.408;2024-02-23T01:16:25;29.27;;;27.87;;
14013;SDS011;49110;52.584;13.408;2024-02-23T01:17:25;32.27;;;30.77;;
14013;SDS011;49110;52.584;13.408;2024-02-23T01:18:26;30.80;;;29.40;;
14013;SDS011;49110;52.584;13.408;2024-02-23T01:19:26;32.50;;;31.00;;
14013;SDS011;49110;52.584;13.408;2024-02-23T01:20:27;31.47;;;29.87;;
14013;SDS011;49110;52.584;13.408;2024-02-23T01:21:27;29.47;;;27.97;;
14013;SDS011;49110;52.584;13.408;2024-02-23T01:22:28;31.67;;;30.20;;
14013;SDS011;49110;52.584;13.408;2024-02-23T01:23:29;30.90;;;29.47;;
14013;SDS011;49110;52.584;13.408;2024-02-23T01:24:29;31.70;;;30.10;;
14013;SDS011;49110;52.584;13.408;2024-02-23T01:25:30;32.87;;;31.20;;
14013;SDS011;49110;52.584;13.408;2024-02-23T01:26:30;33.23;;;31.57;;
14013;SDS011;49110;52.584;13.408;2024-02-23T01:27:31;30.80;;;29.37;;
14013;SDS011;49110;52.584;13.408;2024-02-23T01:28:31;32.67;;;31.07;;
14013;SDS011;49110;52.584;13.408;2024-02-23T01:29:32;30.67;;;29.27;;
14013;SDS011;49110;52.584;13.408;2024-02-23T01:30:32;32.60;;;31.07;;
14013;SDS011;49110;52.584;13.408;2024-02-23T01:31:33;31.53;;;29.97;;
14013;SDS011;49110;52.584;13.408;2024-02-23T01:32:33;28.83;;;27.50;;
14013;SDS011;49110;52.584;13.408;2024-02-23T01:33:35;29.10;;;27.73;;
14013;SDS011;49110;52.584;13.408;2024-02-23T01:34:36;28.83;;;27.50;;
14013;SDS011;49110;52.584;13.408;2024-02-23T01:35:36;29.60;;;28.20;;
14013;SDS011;49110;52.584;13.408;2024-02-23T01:36:37;28.23;;;26.90;;
14013;SDS011;49110;52.584;13.408;2024-02-23T01:37:39;29.20;;;27.70;;
14013;SDS011;49110;52.584;13.408;2024-02-23T01:38:39;29.17;;;27.80;;
14013;SDS011;49110;52.584;13.408;2024-02-23T01:39:42;27.13;;;25.83;;
14013;SDS011;49110;52.584;13.408;2024-02-23T01:40:43;29.07;;;27.67;;
14013;SDS011;49110;52.584;13.408;2024-02-23T01:41:43;28.53;;;27.13;;
14013;SDS011;49110;52.584;13.408;2024-02-23T01:42:44;25.93;;;24.73;;
14013;SDS011;49110;52.584;13.408;2024-02-23T01:43:45;24.13;;;22.93;;
14013;SDS011;49110;52.584;13.408;2024-02-23T01:44:45;23.00;;;21.90;;
14013;SDS011;49110;52.584;13.408;2024-02-23T01:45:46;21.83;;;20.77;;
14013;SDS011;49110;52.584;13.408;2024-02-23T01:46:46;22.40;;;21.23;;
14013;SDS011;49110;52.584;13.408;2024-02-23T01:47:47;21.27;;;20.27;;
14013;SDS011;49110;52.584;13.408;2024-02-23T01:48:48;20.53;;;19.53;;
14013;SDS011;49110;52.584;13.408;2024-02-23T01:49:48;22.30;;;21.23;;
14013;SDS011;49110;52.584;13.408;2024-02-23T01:50:50;22.73;;;21.70;;
14013;SDS011;49110;52.584;13.408;2024-02-23T01:51:50;22.67;;;21.03;;
14013;SDS011;49110;52.584;13.408;2024-02-23T01:52:51;23.03;;;21.83;;
14013;SDS011;49110;52.584;13.408;2024-02-23T01:53:52;22.57;;;20.67;;
14013;SDS011;49110;52.584;13.408;2024-02-23T01:54:53;25.30;;;23.67;;
14013;SDS011;49110;52.584;13.408;2024-02-23T01:55:54;23.37;;;22.07;;
14013;SDS011;49110;52.584;13.408;2024-02-23T01:56:56;22.20;;;20.80;;
14013;SDS011;49110;52.584;13.408;2024-02-23T01:57:59;22.97;;;21.60;;
14013;SDS011;49110;52.584;13.408;2024-02-23T01:59:00;23.80;;;22.40;;
14013;SDS011;49110;52.584;13.408;2024-02-23T02:00:03;22.23;;;21.03;;
14013;SDS011;49110;52.584;13.408;2024-02-23T02:01:05;22.57;;;21.10;;
14013;SDS011;49110;52.584;13.408;2024-02-23T02:02:05;21.83;;;20.83;;
14013;SDS011;49110;52.584;13.408;2024-02-23T02:03:06;22.97;;;21.80;;
14013;SDS011;49110;52.584;13.408;2024-02-23T02:04:07;21.30;;;20.10;;
14013;SDS011;49110;52.584;13.408;2024-02-23T02:05:08;22.80;;;21.70;;
14013;SDS011;49110;52.584;13.408;2024-02-23T02:06:09;21.20;;;20.23;;
14013;SDS011;49110;52.584;13.408;2024-02-23T02:07:10;22.40;;;21.30;;
14013;SDS011;49110;52.584;13.408;2024-02-23T02:08:10;20.10;;;19.20;;
14013;SDS011;49110;52.584;13.408;2024-02-23T02:09:11;20.30;;;19.40;;
14013;SDS011;49110;52.584;13.408;2024-02-23T02:10:12;22.27;;;21.27;;
14013;SDS011;49110;52.584;13.408;2024-02-23T02:11:13;21.80;;;20.80;;
14013;SDS011;49110;52.584;13.408;2024-02-23T02:12:13;20.97;;;19.87;;
14013;SDS011;49110;52.584;13.408;2024-02-23T02:13:13;20.37;;;19.47;;
14013;SDS011;49110;52.584;13.408;2024-02-23T02:14:14;20.10;;;19.13;;
14013;SDS011;49110;52.584;13.408;2024-02-23T02:17:12;15.97;;;15.27;;
14013;SDS011;49110;52.584;13.408;2024-02-23T02:18:12;18.37;;;17.47;;
14013;SDS011;49110;52.584;13.408;2024-02-23T02:19:13;16.40;;;15.50;;
14013;SDS011;49110;52.584;13.408;2024-02-23T02:20:14;20.93;;;19.93;;
14013;SDS011;49110;52.584;13.408;2024-02-23T02:21:17;21.33;;;20.33;;
14013;SDS011;49110;52.584;13.408;2024-02-23T02:22:18;23.13;;;22.07;;
14013;SDS011;49110;52.584;13.408;2024-02-23T02:23:19;28.53;;;27.13;;
14013;SDS011;49110;52.584;13.408;2024-02-23T02:24:20;28.87;;;27.17;;
14013;SDS011;49110;52.584;13.408;2024-02-23T02:25:21;23.30;;;22.00;;
14013;SDS011;49110;52.584;13.408;2024-02-23T02:26:21;24.57;;;23.30;;
14013;SDS011;49110;52.584;13.408;2024-02-23T02:27:22;25.07;;;23.73;;
14013;SDS011;49110;52.584;13.408;2024-02-23T02:28:22;23.23;;;22.13;;
14013;SDS011;49110;52.584;13.408;2024-02-23T02:29:24;23.93;;;22.83;;
14013;SDS011;49110;52.584;13.408;2024-02-23T02:30:25;20.70;;;19.63;;
14013;SDS011;49110;52.584;13.408;2024-02-23T02:31:25;18.33;;;17.47;;
14013;SDS011;49110;52.584;13.408;2024-02-23T02:32:26;17.10;;;16.30;;
14013;SDS011;49110;52.584;13.408;2024-02-23T02:33:26;22.37;;;21.07;;
14013;SDS011;49110;52.584;13.408;2024-02-23T02:34:27;20.97;;;19.87;;
14013;SDS011;49110;52.584;13.408;2024-02-23T02:35:28;19.20;;;18.30;;
14013;SDS011;49110;52.584;13.408;2024-02-23T02:36:29;22.90;;;21.77;;
14013;SDS011;49110;52.584;13.408;2024-02-23T02:37:29;24.43;;;23.23;;
14013;SDS011;49110;52.584;13.408;2024-02-23T02:38:30;20.93;;;19.93;;
14013;SDS011;49110;52.584;13.408;2024-02-23T02:39:30;19.80;;;18.90;;
14013;SDS011;49110;52.584;13.408;2024-02-23T02:40:31;19.83;;;18.93;;
14013;SDS011;49110;52.584;13.408;2024-02-23T02:41:31;18.63;;;17.63;;
14013;SDS011;49110;52.584;13.408;2024-02-23T02:42:32;17.00;;;16.20;;
14013;SDS011;49110;52.584;13.408;2024-02-23T02:43:33;17.00;;;15.67;;
14013;SDS011;49110;52.584;13.408;2024-02-23T02:44:33;15.63;;;14.93;;
14013;SDS011;49110;52.584;13.408;2024-02-23T02:45:34;16.30;;;15.40;;
14013;SDS011;49110;52.584;13.408;2024-02-23T02:46:35;16.40;;;15.63;;
14013;SDS011;49110;52.584;13.408;2024-02-23T02:47:35;17.60;;;16.80;;
14013;SDS011;49110;52.584;13.408;2024-02-23T02:48:36;15.47;;;14.73;;
14013;SDS011;49110;52.584;13.408;2024-02-23T02:49:39;11.90;;;11.30;;
14013;SDS011;49110;52.584;13.408;2024-02-23T02:50:40;10.20;;;9.50;;
14013;SDS011;49110;52.584;13.408;2024-02-23T02:51:40;9.67;;;9.27;;
14013;SDS011;49110;52.584;13.408;2024-02-23T02:52:41;11.03;;;10.43;;
14013;SDS011;49110;52.584;13.408;2024-02-23T02:53:42;9.27;;;8.87;;
14013;SDS011;49110;52.584;13.408;2024-02-23T02:54:42;10.67;;;10.07;;
14013;SDS011;49110;52.584;13.408;2024-02-23T02:55:43;10.90;;;10.30;;
14013;SDS011;49110;52.584;13.408;2024-02-23T02:56:44;10.33;;;9.80;;
14013;SDS011;49110;52.584;13.408;2024-02-23T02:57:47;10.27;;;9.77;;
14013;SDS011;49110;52.584;13.408;2024-02-23T02:58:47;12.40;;;11.77;;
14013;SDS011;49110;52.584;13.408;2024-02-23T02:59:48;10.77;;;9.97;;
14013;SDS011;49110;52.584;13.408;2024-02-23T03:00:50;11.70;;;11.00;;
14013;SDS011;49110;52.584;13.408;2024-02-23T03:01:50;10.50;;;10.00;;
14013;SDS011;49110;52.584;13.408;2024-02-23T03:02:51;11.63;;;11.00;;
14013;SDS011;49110;52.584;13.408;2024-02-23T03:03:51;11.60;;;11.00;;
14013;SDS011;49110;52.584;13.408;2024-02-23T03:04:51;10.70;;;9.97;;
14013;SDS011;49110;52.584;13.408;2024-02-23T03:05:54;10.03;;;9.53;;
14013;SDS011;49110;52.584;13.408;2024-02-23T03:06:55;10.40;;;9.80;;
14013;SDS011;49110;52.584;13.408;2024-02-23T03:07:55;10.40;;;9.97;;
14013;SDS011;49110;52.584;13.408;2024-02-23T03:08:56;11.50;;;10.87;;
14013;SDS011;49110;52.584;13.408;2024-02-23T03:09:56;10.63;;;10.13;;
14013;SDS011;49110;52.584;13.408;2024-02-23T03:10:57;10.33;;;9.83;;
14013;SDS011;49110;52.584;13.408;2024-02-23T03:11:57;13.23;;;12.43;;
14013;SDS011;49110;52.584;13.408;2024-02-23T03:12:58;10.53;;;9.93;;
14013;SDS011;49110;52.584;13.408;2024-02-23T03:13:58;12.60;;;12.00;;
14013;SDS011;49110;52.584;13.408;2024-02-23T03:14:59;10.80;;;10.07;;
14013;SDS011;49110;52.584;13.408;2024-02-23T03:15:59;11.13;;;10.53;;
14013;SDS011;49110;52.584;13.408;2024-02-23T03:17:00;13.67;;;12.97;;
14013;SDS011;49110;52.584;13.408;2024-02-23T03:18:00;11.90;;;11.23;;
14013;SDS011;49110;52.584;13.408;2024-02-23T03:19:02;11.73;;;11.03;;
14013;SDS011;49110;52.584;13.408;2024-02-23T03:20:03;11.33;;;10.83;;
14013;SDS011;49110;52.584;13.408;2024-02-23T03:21:10;10.40;;;9.90;;
14013;SDS011;49110;52.584;13.408;2024-02-23T03:22:11;11.37;;;10.87;;
14013;SDS011;49110;52.584;13.408;2024-02-23T03:23:11;11.50;;;10.70;;
14013;SDS011;49110;52.584;13.408;2024-02-23T03:24:12;11.57;;;11.07;;
14013;SDS011;49110;52.584;13.408;2024-02-23T03:25:12;12.70;;;11.93;;
14013;SDS011;49110;52.584;13.408;2024-02-23T03:26:13;10.97;;;10.43;;
14013;SDS011;49110;52.584;13.408;2024-02-23T03:27:16;15.07;;;14.17;;
14013;SDS011;49110;52.584;13.408;2024-02-23T03:28:16;12.00;;;11.20;;
14013;SDS011;49110;52.584;13.408;2024-02-23T03:29:17;13.53;;;12.73;;
14013;SDS011;49110;52.584;13.408;2024-02-23T03:30:17;12.03;;;11.43;;
14013;SDS011;49110;52.584;13.408;2024-02-23T03:31:18;11.87;;;11.27;;
14013;SDS011;49110;52.584;13.408;2024-02-23T03:32:18;12.97;;;12.37;;
14013;SDS011;49110;52.584;13.408;2024-02-23T03:33:19;10.97;;;10.37;;
14013;SDS011;49110;52.584;13.408;2024-02-23T03:34:20;13.10;;;12.50;;
14013;SDS011;49110;52.584;13.408;2024-02-23T03:35:20;12.33;;;11.63;;
14013;SDS011;49110;52.584;13.408;2024-02-23T03:36:20;13.93;;;13.33;;
14013;SDS011;49110;52.584;13.408;2024-02-23T03:37:21;10.53;;;9.93;;
14013;SDS011;49110;52.584;13.408;2024-02-23T03:38:21;12.70;;;12.10;;
14013;SDS011;49110;52.584;13.408;2024-02-23T03:39:22;12.03;;;11.43;;
14013;SDS011;49110;52.584;13.408;2024-02-23T03:40:22;12.27;;;11.67;;
14013;SDS011;49110;52.584;13.408;2024-02-23T03:41:23;12.73;;;12.03;;
14013;SDS011;49110;52.584;13.408;2024-02-23T03:42:23;12.83;;;12.23;;
14013;SDS011;49110;52.584;13.408;2024-02-23T03:43:24;13.07;;;12.47;;
14013;SDS011;49110;52.584;13.408;2024-02-23T03:44:24;11.00;;;10.40;;
14013;SDS011;49110;52.584;13.408;2024-02-23T03:45:25;12.77;;;12.07;;
14013;SDS011;49110;52.584;13.408;2024-02-23T03:46:25;12.73;;;12.07;;
14013;SDS011;49110;52.584;13.408;2024-02-23T03:47:26;12.73;;;12.17;;
14013;SDS011;49110;52.584;13.408;2024-02-23T03:48:26;15.20;;;14.47;;
14013;SDS011;49110;52.584;13.408;2024-02-23T03:49:27;16.90;;;16.10;;
14013;SDS011;49110;52.584;13.408;2024-02-23T03:50:27;17.53;;;16.67;;
14013;SDS011;49110;52.584;13.408;2024-02-23T03:51:28;16.67;;;15.87;;
14013;SDS011;49110;52.584;13.408;2024-02-23T03:52:28;14.97;;;14.23;;
14013;SDS011;49110;52.584;13.408;2024-02-23T03:53:29;14.57;;;13.80;;
14013;SDS011;49110;52.584;13.408;2024-02-23T03:54:29;14.47;;;13.77;;
14013;SDS011;49110;52.584;13.408;2024-02-23T03:55:31;15.33;;;14.50;;
14013;SDS011;49110;52.584;13.408;2024-02-23T03:56:38;15.00;;;14.30;;
14013;SDS011;49110;52.584;13.408;2024-02-23T03:57:40;14.87;;;13.97;;
14013;SDS011;49110;52.584;13.408;2024-02-23T03:58:40;15.83;;;15.03;;
14013;SDS011;49110;52.584;13.408;2024-02-23T03:59:50;13.90;;;13.27;;
14013;SDS011;49110;52.584;13.408;2024-02-23T04:00:52;11.70;;;11.10;;
14013;SDS011;49110;52.584;13.408;2024-02-23T04:01:53;12.07;;;11.47;;
14013;SDS011;49110;52.584;13.408;2024-02-23T04:02:53;14.17;;;13.47;;
14013;SDS011;49110;52.584;13.408;2024-02-23T04:03:54;14.70;;;13.90;;
14013;SDS011;49110;52.584;13.408;2024-02-23T04:04:54;14.37;;;13.67;;
14013;SDS011;49110;52.584;13.408;2024-02-23T04:05:55;13.63;;;12.97;;
14013;SDS011;49110;52.584;13.408;2024-02-23T04:06:55;15.73;;;14.93;;
14013;SDS011;49110;52.584;13.408;2024-02-23T04:07:56;14.33;;;13.67;;
14013;SDS011;49110;52.584;13.408;2024-02-23T04:08:56;15.33;;;14.63;;
14013;SDS011;49110;52.584;13.408;2024-02-23T04:09:57;16.27;;;15.53;;
14013;SDS011;49110;52.584;13.408;2024-02-23T04:10:57;15.60;;;14.83;;
14013;SDS011;49110;52.584;13.408;2024-02-23T04:11:58;16.03;;;15.23;;
14013;SDS011;49110;52.584;13.408;2024-02-23T04:12:58;14.27;;;13.47;;
14013;SDS011;49110;52.584;13.408;2024-02-23T04:13:59;17.13;;;16.13;;
14013;SDS011;49110;52.584;13.408;2024-02-23T04:15:00;17.67;;;16.83;;
14013;SDS011;49110;52.584;13.408;2024-02-23T04:16:01;15.07;;;14.27;;
14013;SDS011;49110;52.584;13.408;2024-02-23T04:17:03;14.47;;;13.77;;
14013;SDS011;49110;52.584;13.408;2024-02-23T04:18:03;15.57;;;14.87;;
14013;SDS011;49110;52.584;13.408;2024-02-23T04:19:04;15.37;;;14.57;;
14013;SDS011;49110;52.584;13.408;2024-02-23T04:20:05;14.83;;;14.00;;
14013;SDS011;49110;52.584;13.408;2024-02-23T04:21:07;15.00;;;14.30;;
14013;SDS011;49110;52.584;13.408;2024-02-23T04:22:08;13.17;;;12.37;;
14013;SDS011;49110;52.584;13.408;2024-02-23T04:23:09;13.40;;;12.80;;
14013;SDS011;49110;52.584;13.408;2024-02-23T04:24:10;14.10;;;13.40;;
14013;SDS011;49110;52.584;13.408;2024-02-23T04:25:10;15.20;;;14.50;;
14013;SDS011;49110;52.584;13.408;2024-02-23T04:26:11;12.60;;;11.97;;
14013;SDS011;49110;52.584;13.408;2024-02-23T04:27:12;12.77;;;11.97;;
14013;SDS011;49110;52.584;13.408;2024-02-23T04:28:12;14.37;;;13.67;;
14013;SDS011;49110;52.584;13.408;2024-02-23T04:29:13;14.70;;;13.87;;
14013;SDS011;49110;52.584;13.408;2024-02-23T04:30:13;13.37;;;12.70;;
14013;SDS011;49110;52.584;13.408;2024-02-23T04:31:14;12.10;;;11.43;;
14013;SDS011;49110;52.584;13.408;2024-02-23T04:32:14;13.10;;;12.50;;
14013;SDS011;49110;52.584;13.408;2024-02-23T04:33:15;13.50;;;12.70;;
14013;SDS011;49110;52.584;13.408;2024-02-23T04:34:15;13.17;;;12.37;;
14013;SDS011;49110;52.584;13.408;2024-02-23T04:35:16;12.80;;;12.20;;
14013;SDS011;49110;52.584;13.408;2024-02-23T04:36:20;13.13;;;12.43;;
14013;SDS011;49110;52.584;13.408;2024-02-23T04:37:21;14.00;;;13.27;;
14013;SDS011;49110;52.584;13.408;2024-02-23T04:38:21;15.20;;;14.40;;
14013;SDS011;49110;52.584;13.408;2024-02-23T04:39:22;13.17;;;12.37;;
14013;SDS011;49110;52.584;13.408;2024-02-23T04:40:22;10.97;;;10.27;;
14013;SDS011;49110;52.584;13.408;2024-02-23T04:41:23;11.67;;;11.07;;
14013;SDS011;49110;52.584;13.408;2024-02-23T04:42:24;11.87;;;11.33;;
14013;SDS011;49110;52.584;13.408;2024-02-23T04:43:25;12.20;;;11.70;;
14013;SDS011;49110;52.584;13.408;2024-02-23T04:44:25;12.97;;;12.37;;
14013;SDS011;49110;52.584;13.408;2024-02-23T04:45:26;12.57;;;11.90;;
14013;SDS011;49110;52.584;13.408;2024-02-23T04:46:26;13.23;;;12.53;;
14013;SDS011;49110;52.584;13.408;2024-02-23T04:47:27;11.80;;;11.20;;
14013;SDS011;49110;52.584;13.408;2024-02-23T04:48:27;12.17;;;11.57;;
14013;SDS011;49110;52.584;13.408;2024-02-23T04:49:30;11.97;;;11.37;;
14013;SDS011;49110;52.584;13.408;2024-02-23T04:50:31;11.83;;;11.23;;
14013;SDS011;49110;52.584;13.408;2024-02-23T04:51:31;13.23;;;12.53;;
14013;SDS011;49110;52.584;13.408;2024-02-23T04:52:32;12.80;;;12.20;;
14013;SDS011;49110;52.584;13.408;2024-02-23T04:53:35;13.30;;;12.60;;
14013;SDS011;49110;52.584;13.408;2024-02-23T04:54:37;13.30;;;12.33;;
14013;SDS011;49110;52.584;13.408;2024-02-23T04:55:37;12.87;;;12.27;;
14013;SDS011;49110;52.584;13.408;2024-02-23T04:56:38;13.23;;;12.60;;
14013;SDS011;49110;52.584;13.408;2024-02-23T04:57:39;12.87;;;12.10;;
14013;SDS011;49110;52.584;13.408;2024-02-23T04:58:39;13.50;;;12.70;;
14013;SDS011;49110;52.584;13.408;2024-02-23T04:59:41;13.80;;;13.13;;
14013;SDS011;49110;52.584;13.408;2024-02-23T05:00:42;12.17;;;11.47;;
14013;SDS011;49110;52.584;13.408;2024-02-23T05:01:43;14.53;;;13.83;;
14013;SDS011;49110;52.584;13.408;2024-02-23T05:02:43;13.10;;;12.50;;
14013;SDS011;49110;52.584;13.408;2024-02-23T05:03:44;13.17;;;12.47;;
14013;SDS011;49110;52.584;13.408;2024-02-23T05:04:44;11.97;;;11.37;;
14013;SDS011;49110;52.584;13.408;2024-02-23T05:05:45;12.27;;;11.67;;
14013;SDS011;49110;52.584;13.408;2024-02-23T05:06:46;12.90;;;12.27;;
14013;SDS011;49110;52.584;13.408;2024-02-23T05:07:46;12.17;;;11.57;;
14013;SDS011;49110;52.584;13.408;2024-02-23T05:08:47;13.27;;;12.70;;
14013;SDS011;49110;52.584;13.408;2024-02-23T05:09:47;13.87;;;13.17;;
14013;SDS011;49110;52.584;13.408;2024-02-23T05:10:48;13.17;;;12.57;;
14013;SDS011;49110;52.584;13.408;2024-02-23T05:11:49;13.60;;;12.80;;
14013;SDS011;49110;52.584;13.408;2024-02-23T05:12:49;13.77;;;13.07;;
14013;SDS011;49110;52.584;13.408;2024-02-23T05:13:50;13.47;;;12.87;;
14013;SDS011;49110;52.584;13.408;2024-02-23T05:14:50;11.27;;;10.67;;
14013;SDS011;49110;52.584;13.408;2024-02-23T05:15:51;15.27;;;14.50;;
14013;SDS011;49110;52.584;13.408;2024-02-23T05:16:51;16.80;;;16.00;;
14013;SDS011;49110;52.584;13.408;2024-02-23T05:17:52;16.97;;;16.07;;
14013;SDS011;49110;52.584;13.408;2024-02-23T05:18:52;19.30;;;18.40;;
14013;SDS011;49110;52.584;13.408;2024-02-23T05:19:53;23.97;;;22.63;;
14013;SDS011;49110;52.584;13.408;2024-02-23T05:20:53;25.57;;;24.37;;
14013;SDS011;49110;52.584;13.408;2024-02-23T05:21:54;25.07;;;23.87;;
14013;SDS011;49110;52.584;13.408;2024-02-23T05:22:54;23.83;;;22.63;;
14013;SDS011;49110;52.584;13.408;2024-02-23T05:23:55;24.17;;;23.00;;
14013;SDS011;49110;52.584;13.408;2024-02-23T05:24:55;26.63;;;25.37;;
14013;SDS011;49110;52.584;13.408;2024-02-23T05:25:56;24.70;;;23.50;;
14013;SDS011;49110;52.584;13.408;2024-02-23T05:26:56;27.73;;;26.33;;
14013;SDS011;49110;52.584;13.408;2024-02-23T05:27:57;27.73;;;26.23;;
14013;SDS011;49110;52.584;13.408;2024-02-23T05:28:58;26.43;;;25.20;;
14013;SDS011;49110;52.584;13.408;2024-02-23T05:29:58;30.03;;;28.60;;
14013;SDS011;49110;52.584;13.408;2024-02-23T05:31:01;27.63;;;26.27;;
14013;SDS011;49110;52.584;13.408;2024-02-23T05:32:03;25.20;;;24.03;;
14013;SDS011;49110;52.584;13.408;2024-02-23T05:33:04;28.50;;;27.13;;
14013;SDS011;49110;52.584;13.408;2024-02-23T05:34:05;30.67;;;29.20;;
14013;SDS011;49110;52.584;13.408;2024-02-23T05:35:05;30.97;;;29.50;;
14013;SDS011;49110;52.584;13.408;2024-02-23T05:36:06;25.80;;;24.53;;
14013;SDS011;49110;52.584;13.408;2024-02-23T05:37:07;25.53;;;24.23;;
14013;SDS011;49110;52.584;13.408;2024-02-23T05:38:08;32.17;;;30.47;;
14013;SDS011;49110;52.584;13.408;2024-02-23T05:39:08;13.40;;;12.70;;
14013;SDS011;49110;52.584;13.408;2024-02-23T05:40:09;14.00;;;13.40;;
14013;SDS011;49110;52.584;13.408;2024-02-23T05:41:12;14.03;;;13.43;;
14013;SDS011;49110;52.584;13.408;2024-02-23T05:42:13;13.43;;;12.83;;
14013;SDS011;49110;52.584;13.408;2024-02-23T05:43:14;14.87;;;14.17;;
14013;SDS011;49110;52.584;13.408;2024-02-23T05:44:14;15.73;;;14.93;;
14013;SDS011;49110;52.584;13.408;2024-02-23T05:45:18;15.37;;;14.57;;
14013;SDS011;49110;52.584;13.408;2024-02-23T05:46:19;14.83;;;14.23;;
14013;SDS011;49110;52.584;13.408;2024-02-23T05:47:21;16.33;;;15.53;;
14013;SDS011;49110;52.584;13.408;2024-02-23T05:48:21;18.13;;;17.33;;
14013;SDS011;49110;52.584;13.408;2024-02-23T05:49:22;17.23;;;16.43;;
14013;SDS011;49110;52.584;13.408;2024-02-23T05:50:22;14.90;;;14.23;;
14013;SDS011;49110;52.584;13.408;2024-02-23T05:51:23;18.57;;;17.73;;
14013;SDS011;49110;52.584;13.408;2024-02-23T05:52:23;15.93;;;15.23;;